Time;durP1;ratioP1;P1;durP2;ratioP2;P2;SDS_P1;SDS_P2;PMS_P1;PMS_P2;Temp;Humidity;BMP_temperature;BMP_pressure;BME280_temperature;BME280_humidity;BME280_pressure;Samples;Min_cycle;Max_cycle;Signal;HPM_P1;HPM_P2
2022/01/23 00:00:47;;;;;;;12.65;7.18;;;;;;;5.87;100.00;103588.66;5072609;28;20028;-77
2022/01/23 00:03:17;;;;;;;16.35;8.00;;;;;;;5.87;100.00;103591.31;5072029;28;20048;-76
2022/01/23 00:05:45;;;;;;;14.27;7.68;;;;;;;5.87;100.00;103582.50;5072150;28;20048;-80
2022/01/23 00:08:13;;;;;;;16.02;6.72;;;;;;;5.89;100.00;103584.31;5071815;28;20375;-79
2022/01/23 00:10:39;;;;;;;16.00;7.57;;;;;;;5.87;100.00;103582.50;5072244;28;20078;-76
2022/01/23 00:13:16;;;;;;;15.15;7.18;;;;;;;5.86;100.00;103591.28;5072877;28;20112;-80
2022/01/23 00:18:25;;;;;;;16.42;7.20;;;;;;;5.83;100.00;103585.94;5072561;28;20054;-79
2022/01/23 00:20:51;;;;;;;12.60;7.03;;;;;;;5.81;100.00;103580.66;5072115;28;20111;-76
2022/01/23 00:31:23;;;;;;;15.32;6.72;;;;;;;5.89;100.00;103565.03;5072134;28;20436;-76
2022/01/23 00:33:51;;;;;;;14.57;7.05;;;;;;;5.85;100.00;103578.97;5072073;28;20102;-76
2022/01/23 00:36:17;;;;;;;18.05;7.45;;;;;;;5.83;100.00;103573.69;5072106;28;20021;-75
2022/01/23 00:38:42;;;;;;;12.15;6.13;;;;;;;5.82;100.00;103578.91;5072559;28;20479;-76
2022/01/23 00:41:07;;;;;;;21.25;7.30;;;;;;;5.85;100.00;103569.34;5071986;28;20448;-80
2022/01/23 00:43:35;;;;;;;15.00;6.45;;;;;;;5.83;100.00;103575.41;5072475;28;20044;-77
2022/01/23 00:49:34;;;;;;;17.45;7.03;;;;;;;5.82;100.00;103568.38;5071919;28;20130;-76
2022/01/23 00:51:37;;;;;;;16.45;7.55;;;;;;;5.78;100.00;103559.56;5064604;28;20490;-76
2022/01/23 00:54:06;;;;;;;14.85;6.30;;;;;;;5.80;100.00;103564.84;5072580;28;20020;-78
2022/01/23 00:56:32;;;;;;;15.02;6.90;;;;;;;5.79;100.00;103557.81;5072103;28;20047;-82
2022/01/23 00:58:59;;;;;;;21.15;7.63;;;;;;;5.80;100.00;103555.22;5071688;28;20086;-79
2022/01/23 01:01:24;;;;;;;11.88;6.50;;;;;;;5.82;100.00;103556.13;5072069;28;20036;-78
2022/01/23 01:03:50;;;;;;;12.43;6.82;;;;;;;5.80;100.00;103560.47;5071734;28;20054;-77
2022/01/23 01:06:16;;;;;;;13.68;6.50;;;;;;;5.77;100.00;103560.44;5072515;28;20035;-77
2022/01/23 01:08:42;;;;;;;15.88;6.57;;;;;;;5.76;100.00;103556.03;5071953;28;20032;-79
2022/01/23 01:13:56;;;;;;;12.68;6.47;;;;;;;5.77;100.00;103557.81;5071955;28;20087;-81
2022/01/23 01:33:13;;;;;;;12.05;6.72;;;;;;;5.80;100.00;103570.13;5055842;28;20388;-80
2022/01/23 01:35:33;;;;;;;15.18;6.75;;;;;;;5.81;100.00;103569.28;5072718;28;20028;-78
2022/01/23 01:37:59;;;;;;;14.55;6.70;;;;;;;5.79;100.00;103576.22;5075256;28;20029;-77
2022/01/23 01:40:25;;;;;;;14.88;6.65;;;;;;;5.78;100.00;103574.44;5075306;28;20028;-80
2022/01/23 01:42:51;;;;;;;19.50;7.70;;;;;;;5.77;100.00;103570.94;5075652;28;20111;-77
2022/01/23 01:45:25;;;;;;;16.50;7.03;;;;;;;5.78;100.00;103575.34;5074870;28;20583;-76
2022/01/23 01:47:54;;;;;;;18.80;6.68;;;;;;;5.79;100.00;103571.84;5075535;28;20029;-79
2022/01/23 01:50:20;;;;;;;13.23;7.38;;;;;;;5.77;100.00;103578.84;5075038;28;20609;-79
2022/01/23 01:52:46;;;;;;;16.38;6.93;;;;;;;5.77;100.00;103586.72;5075290;28;20111;-78
2022/01/23 01:55:21;;;;;;;14.27;7.05;;;;;;;5.76;100.00;103584.06;5075006;28;20056;-78
2022/01/23 01:57:53;;;;;;;13.13;6.82;;;;;;;5.74;100.00;103577.03;5075070;28;20024;-79
2022/01/23 02:10:46;;;;;;;16.60;7.05;;;;;;;5.73;100.00;103579.63;5055416;28;20037;-80
2022/01/23 02:13:15;;;;;;;13.55;6.95;;;;;;;5.72;100.00;103580.50;5065948;28;20025;-80
2022/01/23 02:50:54;;;;;;;16.27;7.30;;;;;;;5.70;100.00;103540.13;5073441;28;20044;-80
2022/01/23 02:55:55;;;;;;;14.68;6.78;;;;;;;5.73;100.00;103545.47;5074256;28;20519;-76
2022/01/23 02:58:23;;;;;;;22.23;8.75;;;;;;;5.73;100.00;103548.09;5073721;28;20166;-79
2022/01/23 03:01:10;;;;;;;16.58;7.60;;;;;;;5.72;100.00;103546.31;5073830;28;20025;-77
2022/01/23 03:03:43;;;;;;;18.92;7.65;;;;;;;5.74;100.00;103529.69;5073426;28;20040;-77
2022/01/23 03:14:21;;;;;;;17.75;6.90;;;;;;;5.89;100.00;103522.94;5073136;28;20090;-81
2022/01/23 03:25:13;;;;;;;16.75;7.80;;;;;;;5.82;100.00;103537.72;5072962;28;20094;-77
2022/01/23 03:30:21;;;;;;;13.45;6.57;;;;;;;5.76;100.00;103545.50;5072786;28;20032;-79
2022/01/23 03:32:49;;;;;;;16.88;7.55;;;;;;;5.75;100.00;103551.59;5073588;28;20028;-80
2022/01/23 03:35:20;;;;;;;14.32;7.00;;;;;;;5.75;100.00;103551.59;5072904;28;20482;-79
2022/01/23 03:37:46;;;;;;;15.52;6.70;;;;;;;5.79;100.00;103547.31;5072556;28;20538;-81
2022/01/23 03:40:12;;;;;;;21.50;8.00;;;;;;;5.78;100.00;103553.41;5072531;28;20020;-80
2022/01/23 03:42:40;;;;;;;17.80;7.50;;;;;;;5.76;100.00;103563.91;5073007;28;20033;-80
2022/01/23 03:48:01;;;;;;;18.65;7.70;;;;;;;5.76;100.00;103549.88;5073418;28;20107;-77
2022/01/23 03:50:27;;;;;;;13.00;7.50;;;;;;;5.77;100.00;103549.00;5072816;28;20071;-81
2022/01/23 03:52:52;;;;;;;16.27;7.30;;;;;;;5.75;100.00;103554.25;5073221;28;20029;-76
2022/01/23 03:55:18;;;;;;;13.75;7.07;;;;;;;5.76;100.00;103549.88;5062731;28;20452;-77
2022/01/23 03:57:43;;;;;;;17.70;7.82;;;;;;;5.76;100.00;103561.28;5072863;28;20032;-78
2022/01/23 04:00:09;;;;;;;16.15;7.68;;;;;;;5.75;100.00;103562.13;5072698;28;20029;-77
2022/01/23 04:02:34;;;;;;;18.25;7.47;;;;;;;5.72;100.00;103559.47;5072124;28;20039;-80
2022/01/23 04:05:00;;;;;;;17.45;7.68;;;;;;;5.71;100.00;103553.28;5072767;28;20028;-77
2022/01/23 04:07:28;;;;;;;17.48;7.53;;;;;;;5.70;100.00;103562.06;5072428;28;20035;-77
2022/01/23 04:09:53;;;;;;;20.08;7.65;;;;;;;5.69;100.00;103565.53;5072335;28;20059;-77
2022/01/23 04:14:58;;;;;;;20.30;7.88;;;;;;;5.79;100.00;103556.06;5072927;28;20038;-78
2022/01/23 04:18:11;;;;;;;22.02;8.40;;;;;;;5.76;100.00;103563.03;5072220;28;20028;-77
2022/01/23 04:33:45;;;;;;;16.05;7.55;;;;;;;5.71;100.00;103576.94;5071935;28;20127;-77
2022/01/23 05:01:11;;;;;;;21.67;9.13;;;;;;;5.57;100.00;103570.53;5014756;28;20516;-81
2022/01/23 05:06:20;;;;;;;16.77;8.10;;;;;;;5.58;100.00;103572.31;5033737;28;20516;-78
2022/01/23 05:08:46;;;;;;;20.10;8.85;;;;;;;5.62;100.00;103573.28;5033862;28;20524;-77
2022/01/23 05:11:12;;;;;;;18.30;9.07;;;;;;;5.61;100.00;103571.50;5033760;28;20177;-78
2022/01/23 05:13:38;;;;;;;18.10;9.27;;;;;;;5.61;100.00;103574.13;5033463;28;20026;-80
2022/01/23 05:16:03;;;;;;;17.75;8.93;;;;;;;5.61;100.00;103569.75;5033391;28;20057;-80
2022/01/23 05:18:32;;;;;;;17.52;9.13;;;;;;;5.63;100.00;103568.03;5033834;28;20448;-76
2022/01/23 05:21:10;;;;;;;20.63;9.35;;;;;;;5.62;100.00;103568.03;5033650;28;20044;-80
2022/01/23 05:23:36;;;;;;;21.45;10.30;;;;;;;5.58;100.00;103564.44;5033188;28;20060;-76
2022/01/23 05:26:01;;;;;;;18.30;9.95;;;;;;;5.58;100.00;103567.06;5033521;28;20469;-77
2022/01/23 05:28:26;;;;;;;19.27;9.90;;;;;;;5.54;100.00;103574.00;5035042;28;20053;-79
2022/01/23 05:30:52;;;;;;;23.30;9.88;;;;;;;5.52;100.00;103569.56;5053558;28;20107;-76
2022/01/23 05:33:17;;;;;;;21.52;9.65;;;;;;;5.51;100.00;103578.31;5053510;28;20455;-80
2022/01/23 05:35:42;;;;;;;20.70;9.07;;;;;;;5.50;100.00;103569.53;5067815;28;20067;-80
2022/01/23 05:38:08;;;;;;;18.58;9.80;;;;;;;5.52;100.00;103569.56;5074958;28;20559;-77
2022/01/23 05:40:33;;;;;;;17.42;9.23;;;;;;;5.51;100.00;103571.31;5075419;28;20476;-76
2022/01/23 05:42:59;;;;;;;20.45;9.57;;;;;;;5.49;100.00;103566.88;5075376;28;20021;-80
2022/01/23 05:45:24;;;;;;;23.65;10.50;;;;;;;5.50;100.00;103566.00;5075150;28;20098;-81
2022/01/23 05:47:49;;;;;;;18.27;10.00;;;;;;;5.49;100.00;103562.50;5075013;28;20074;-77
2022/01/23 05:50:15;;;;;;;23.60;10.27;;;;;;;5.49;100.00;103562.50;5075253;28;20487;-79
2022/01/23 05:52:40;;;;;;;18.95;9.88;;;;;;;5.54;100.00;103573.13;5075351;28;20035;-80
2022/01/23 05:55:06;;;;;;;18.35;10.00;;;;;;;5.54;100.00;103574.00;5075122;28;20108;-78
2022/01/23 05:57:31;;;;;;;18.95;9.70;;;;;;;5.56;100.00;103574.03;5074952;28;20033;-76
2022/01/23 05:59:56;;;;;;;19.02;9.45;;;;;;;5.57;100.00;103566.16;5074011;28;20461;-76
2022/01/23 06:02:22;;;;;;;21.05;9.52;;;;;;;5.57;100.00;103557.41;5074930;28;20032;-79
2022/01/23 06:04:47;;;;;;;17.52;9.98;;;;;;;5.51;100.00;103573.94;5074955;28;20028;-80
2022/01/23 06:07:12;;;;;;;18.45;9.20;;;;;;;5.50;100.00;103564.28;5074706;28;20499;-78
2022/01/23 06:09:40;;;;;;;21.70;11.43;;;;;;;5.48;100.00;103565.97;5074456;28;20032;-79
2022/01/23 06:12:06;;;;;;;24.83;10.82;;;;;;;5.48;100.00;103570.38;5074923;28;20502;-76
2022/01/23 06:14:31;;;;;;;23.00;10.80;;;;;;;5.52;100.00;103570.44;5074294;28;20027;-79
2022/01/23 06:16:56;;;;;;;24.92;10.85;;;;;;;5.50;100.00;103564.28;5074440;28;20033;-76
2022/01/23 06:19:22;;;;;;;24.58;11.25;;;;;;;5.50;100.00;103558.13;5065871;28;20025;-78
2022/01/23 06:21:47;;;;;;;25.42;10.82;;;;;;;5.52;100.00;103562.56;5054815;28;20029;-77
2022/01/23 06:24:24;;;;;;;21.10;11.15;;;;;;;5.51;100.00;103559.91;5054517;28;20025;-79
2022/01/23 06:26:57;;;;;;;21.13;10.60;;;;;;;5.48;100.00;103559.84;5059618;28;20144;-77
2022/01/23 06:29:24;;;;;;;27.02;11.27;;;;;;;5.50;100.00;103555.50;5074431;28;20027;-78
2022/01/23 06:31:53;;;;;;;25.33;10.98;;;;;;;5.49;100.00;103573.03;5073241;28;20025;-76
2022/01/23 06:34:19;;;;;;;20.73;9.98;;;;;;;5.47;100.00;103572.09;5074638;28;20024;-77
2022/01/23 06:36:45;;;;;;;23.88;10.20;;;;;;;5.48;100.00;103565.97;5074444;28;20369;-79
2022/01/23 06:39:12;;;;;;;22.45;11.50;;;;;;;5.49;100.00;103567.75;5073832;28;20454;-79
2022/01/23 06:41:39;;;;;;;23.38;11.02;;;;;;;5.48;100.00;103575.63;5073979;28;20111;-79
2022/01/23 06:44:05;;;;;;;23.67;10.85;;;;;;;5.46;100.00;103583.47;5070043;28;20036;-78
2022/01/23 06:46:31;;;;;;;21.85;11.95;;;;;;;5.49;100.00;103583.53;5055097;28;20035;-75
2022/01/23 06:48:57;;;;;;;23.25;11.75;;;;;;;5.48;100.00;103587.00;5082073;28;20544;-77
2022/01/23 06:51:22;;;;;;;29.17;11.63;;;;;;;5.48;100.00;103589.63;5082495;28;20024;-78
2022/01/23 06:53:47;;;;;;;22.85;11.43;;;;;;;5.51;100.00;103592.34;5075000;28;20039;-77
2022/01/23 06:56:13;;;;;;;25.48;12.05;;;;;;;5.51;100.00;103592.34;5074243;28;20024;-77
2022/01/23 06:58:38;;;;;;;24.10;12.13;;;;;;;5.55;100.00;103593.28;5073779;28;20507;-78
2022/01/23 07:01:07;;;;;;;26.08;12.68;;;;;;;5.55;100.00;103591.56;5073631;28;20086;-77
2022/01/23 07:03:34;;;;;;;25.70;12.30;;;;;;;5.54;100.00;103589.78;5073478;28;20036;-77
2022/01/23 07:05:59;;;;;;;22.05;12.63;;;;;;;5.52;100.00;103596.72;5074210;28;20388;-77
2022/01/23 07:08:25;;;;;;;28.92;12.38;;;;;;;5.51;100.00;103594.97;5073491;28;20051;-76
2022/01/23 07:10:50;;;;;;;30.73;12.95;;;;;;;5.55;100.00;103603.78;5073064;28;20056;-78
2022/01/23 07:13:15;;;;;;;27.85;12.70;;;;;;;5.56;100.00;103603.84;5073041;28;20025;-77
2022/01/23 07:15:41;;;;;;;24.95;12.13;;;;;;;5.58;100.00;103607.38;5073550;28;20074;-76
2022/01/23 07:18:06;;;;;;;23.38;12.50;;;;;;;5.57;100.00;103610.84;5073503;28;20047;-77
2022/01/23 07:20:31;;;;;;;22.38;11.70;;;;;;;5.54;100.00;103607.28;5073300;28;20029;-76
2022/01/23 07:22:57;;;;;;;26.52;12.73;;;;;;;5.56;100.00;103600.31;5073717;28;20037;-76
2022/01/23 07:25:22;;;;;;;23.50;10.88;;;;;;;5.55;100.00;103615.22;5073649;28;20525;-76
2022/01/23 07:27:51;;;;;;;26.13;12.20;;;;;;;5.49;100.00;103609.81;5073458;28;20025;-77
2022/01/23 07:30:27;;;;;;;26.08;12.30;;;;;;;5.47;100.00;103610.63;5072851;28;20024;-76
2022/01/23 07:32:53;;;;;;;22.48;11.43;;;;;;;5.45;100.00;103614.97;5073053;28;20491;-76
2022/01/23 07:35:19;;;;;;;26.95;12.20;;;;;;;5.41;100.00;103617.53;5073257;28;20024;-76
2022/01/23 07:37:44;;;;;;;25.45;12.18;;;;;;;5.44;100.00;103623.72;5073244;28;20028;-76
2022/01/23 07:40:10;;;;;;;26.67;12.35;;;;;;;5.42;100.00;103623.66;5072633;28;20043;-75
2022/01/23 07:42:35;;;;;;;26.15;12.70;;;;;;;5.46;100.00;103627.25;5070786;28;20044;-78
2022/01/23 07:45:02;;;;;;;22.67;12.55;;;;;;;5.44;100.00;103632.47;5054942;28;20024;-78
2022/01/23 07:47:27;;;;;;;25.13;12.45;;;;;;;5.44;100.00;103635.13;5057465;28;20029;-76
2022/01/23 07:49:52;;;;;;;26.58;12.60;;;;;;;5.44;100.00;103629.84;5053055;28;20123;-78
2022/01/23 07:52:18;;;;;;;27.58;12.40;;;;;;;5.45;100.00;103643.88;5069558;28;20038;-76
2022/01/23 07:54:44;;;;;;;22.67;11.50;;;;;;;5.42;100.00;103644.69;5073160;28;20037;-77
2022/01/23 07:57:09;;;;;;;25.92;12.00;;;;;;;5.43;100.00;103646.47;5072147;28;20701;-78
2022/01/23 07:59:35;;;;;;;27.90;13.07;;;;;;;5.44;100.00;103643.00;5070767;28;20115;-78
2022/01/23 08:02:01;;;;;;;37.58;13.85;;;;;;;5.43;100.00;103646.47;5067589;28;20499;-76
2022/01/23 08:04:26;;;;;;;26.27;12.43;;;;;;;5.41;100.00;103656.09;5061151;28;20045;-77
2022/01/23 08:07:07;;;;;;;24.88;12.27;;;;;;;5.44;100.00;103655.25;5064614;28;20545;-76
2022/01/23 08:09:33;;;;;;;24.23;12.45;;;;;;;5.47;100.00;103650.06;5072646;28;20060;-79
2022/01/23 08:11:58;;;;;;;27.35;12.82;;;;;;;5.51;100.00;103647.53;5071892;28;20498;-79
2022/01/23 08:14:23;;;;;;;29.73;12.40;;;;;;;5.51;100.00;103655.44;5071444;28;20036;-79
2022/01/23 08:16:49;;;;;;;30.10;13.75;;;;;;;5.50;100.00;103656.28;5074713;28;20031;-76
2022/01/23 08:19:14;;;;;;;28.75;13.40;;;;;;;5.50;100.00;103660.63;5071616;28;20370;-78
2022/01/23 08:21:39;;;;;;;25.77;12.48;;;;;;;5.53;100.00;103647.56;5072153;28;20090;-78
2022/01/23 08:24:05;;;;;;;27.40;12.52;;;;;;;5.56;100.00;103658.13;5072219;28;20032;-77
2022/01/23 08:26:31;;;;;;;25.60;13.30;;;;;;;5.60;100.00;103662.63;5072888;28;20035;-78
2022/01/23 08:28:56;;;;;;;30.83;14.88;;;;;;;5.57;100.00;103658.16;5071963;28;20059;-79
2022/01/23 08:31:21;;;;;;;32.85;14.98;;;;;;;5.59;100.00;103658.22;5072854;28;20078;-78
2022/01/23 08:33:47;;;;;;;31.80;14.90;;;;;;;5.63;100.00;103660.06;5070059;28;20037;-75
2022/01/23 08:36:12;;;;;;;29.58;15.95;;;;;;;5.64;100.00;103667.09;5052725;28;20063;-77
2022/01/23 08:38:37;;;;;;;35.15;16.10;;;;;;;5.66;100.00;103660.09;5065381;28;20037;-78
2022/01/23 08:43:43;;;;;;;30.05;14.95;;;;;;;5.73;100.00;103655.88;5052183;28;20032;-79
2022/01/23 08:46:09;;;;;;;29.30;14.85;;;;;;;5.79;100.00;103671.78;5052293;28;20029;-79
2022/01/23 08:48:34;;;;;;;30.98;15.00;;;;;;;5.81;100.00;103659.53;5078319;28;20353;-78
2022/01/23 08:51:00;;;;;;;31.55;14.77;;;;;;;5.83;100.00;103667.47;5071495;28;20043;-79
2022/01/23 08:53:25;;;;;;;31.00;15.00;;;;;;;5.84;100.00;103669.25;5052105;28;20032;-79
2022/01/23 08:55:50;;;;;;;30.15;15.57;;;;;;;5.85;100.00;103669.28;5052177;28;20380;-79
2022/01/23 08:58:16;;;;;;;38.60;16.33;;;;;;;5.89;100.00;103663.22;5057694;28;20041;-78
2022/01/23 09:00:42;;;;;;;29.23;14.57;;;;;;;5.97;100.00;103660.75;5063476;28;20066;-80
2022/01/23 09:03:08;;;;;;;38.95;16.13;;;;;;;6.01;100.00;103662.63;5072150;28;20352;-79
2022/01/23 09:05:33;;;;;;;30.60;15.50;;;;;;;6.05;100.00;103664.44;5072368;28;20074;-79
2022/01/23 09:07:59;;;;;;;27.98;15.65;;;;;;;6.12;100.00;103656.69;5071784;28;20055;-79
2022/01/23 09:10:26;;;;;;;31.15;15.80;;;;;;;6.19;100.00;103661.19;5071973;28;20481;-78
2022/01/23 09:13:10;;;;;;;31.08;16.45;;;;;;;6.23;100.00;103666.53;5072160;28;20048;-80
2022/01/23 09:15:35;;;;;;;28.50;16.08;;;;;;;6.29;100.00;103659.63;5071878;28;20539;-80
2022/01/23 09:18:02;;;;;;;30.02;16.10;;;;;;;6.29;100.00;103667.50;5072407;28;20119;-79
2022/01/23 09:20:27;;;;;;;29.95;16.00;;;;;;;6.37;100.00;103663.28;5072113;28;20035;-78
2022/01/23 09:22:53;;;;;;;27.08;16.05;;;;;;;6.40;100.00;103673.88;5071482;28;20025;-78
2022/01/23 09:25:18;;;;;;;30.70;16.70;;;;;;;6.43;100.00;103670.41;5071345;28;20028;-78
2022/01/23 09:27:44;;;;;;;24.67;15.27;;;;;;;6.51;100.00;103674.06;5071835;28;20555;-79
2022/01/23 09:30:17;;;;;;;27.33;15.68;;;;;;;6.58;100.00;103667.16;5071193;28;20036;-80
2022/01/23 09:32:44;;;;;;;29.02;14.80;;;;;;;6.63;100.00;103671.66;5059709;28;20534;-79
2022/01/23 09:35:10;;;;;;;27.50;14.63;;;;;;;6.65;100.00;103672.56;5053318;28;20021;-80
2022/01/23 09:37:35;;;;;;;25.85;14.55;;;;;;;6.65;100.00;103679.56;5062364;28;20181;-77
2022/01/23 09:40:01;;;;;;;27.65;15.68;;;;;;;6.68;100.00;103674.38;5072818;28;20480;-78
2022/01/23 09:42:42;;;;;;;33.28;14.75;;;;;;;6.71;100.00;103684.94;5074440;28;20460;-79
2022/01/23 09:45:12;;;;;;;30.13;14.90;;;;;;;6.75;100.00;103685.88;5075369;28;20020;-78
2022/01/23 09:47:38;;;;;;;28.90;14.60;;;;;;;6.80;100.00;103684.22;5067701;28;20104;-78
2022/01/23 09:50:07;;;;;;;25.20;13.90;;;;;;;6.87;100.00;103694.00;5081145;28;20028;-77
2022/01/23 09:52:35;;;;;;;25.50;14.00;;;;;;;6.89;100.00;103692.25;5075188;28;20073;-78
2022/01/23 09:55:07;;;;;;;25.98;14.02;;;;;;;6.95;100.00;103689.72;5075299;28;20042;-78
2022/01/23 09:57:36;;;;;;;28.35;14.77;;;;;;;6.95;100.00;103684.47;5075493;28;20024;-78
2022/01/23 10:00:06;;;;;;;26.67;13.60;;;;;;;7.00;99.83;103690.69;5069424;28;20464;-77
2022/01/23 10:02:31;;;;;;;26.13;12.75;;;;;;;7.02;98.94;103690.72;5063491;28;20025;-78
2022/01/23 10:04:56;;;;;;;28.38;14.10;;;;;;;7.02;98.50;103690.72;5054767;28;20045;-78
2022/01/23 10:07:22;;;;;;;27.23;14.45;;;;;;;7.05;98.42;103696.03;5055098;28;20098;-77
2022/01/23 10:09:53;;;;;;;24.85;13.27;;;;;;;7.03;98.49;103695.13;5054565;28;20096;-74
2022/01/23 10:12:20;;;;;;;26.30;12.80;;;;;;;7.12;98.22;103687.34;5070578;28;20039;-78
2022/01/23 10:14:46;;;;;;;26.23;14.00;;;;;;;7.12;98.10;103687.34;5074271;28;20041;-75
2022/01/23 10:17:12;;;;;;;23.15;12.15;;;;;;;7.16;97.69;103699.75;5075242;28;20021;-77
2022/01/23 10:19:38;;;;;;;20.70;12.65;;;;;;;7.13;97.10;103690.91;5074545;28;20035;-76
2022/01/23 10:22:05;;;;;;;23.42;12.95;;;;;;;7.17;97.55;103690.97;5073778;28;20456;-78
2022/01/23 10:24:32;;;;;;;23.75;12.82;;;;;;;7.23;96.82;103684.91;5072118;28;20029;-77
2022/01/23 10:26:59;;;;;;;26.63;13.55;;;;;;;7.26;96.66;103686.69;5070458;28;20075;-76
2022/01/23 10:29:35;;;;;;;20.92;13.30;;;;;;;7.27;96.28;103680.56;5071067;28;20033;-77
2022/01/23 10:32:08;;;;;;;20.73;13.05;;;;;;;7.38;96.14;103681.63;5070911;28;20028;-76
2022/01/23 10:34:56;;;;;;;25.48;13.25;;;;;;;7.43;96.06;103676.38;5074656;28;20028;-78
2022/01/23 10:37:35;;;;;;;25.30;12.45;;;;;;;7.47;94.98;103688.78;5074125;28;20384;-77
2022/01/23 10:40:07;;;;;;;21.60;12.38;;;;;;;7.49;94.33;103689.66;5074383;28;20056;-78
2022/01/23 10:48:23;;;;;;;19.48;11.23;;;;;;;7.47;93.80;103683.50;5067666;28;20035;-77
2022/01/23 10:50:49;;;;;;;21.05;11.48;;;;;;;7.47;93.91;103670.31;5054114;28;20037;-76
2022/01/23 10:53:15;;;;;;;21.30;12.23;;;;;;;7.46;93.40;103679.97;5060065;28;20494;-77
2022/01/23 10:55:40;;;;;;;22.83;12.32;;;;;;;7.46;93.52;103673.81;5072292;28;20127;-76
2022/01/23 10:58:17;;;;;;;21.20;12.27;;;;;;;7.38;93.66;103666.66;5074374;28;20024;-77
2022/01/23 11:00:42;;;;;;;24.55;12.48;;;;;;;7.40;93.44;103671.09;5073550;28;20048;-76
2022/01/23 11:03:22;;;;;;;24.55;12.52;;;;;;;7.41;93.82;103675.50;5063351;28;20428;-77
2022/01/23 11:05:49;;;;;;;20.23;11.57;;;;;;;7.45;93.93;103672.03;5062623;28;20040;-76
2022/01/23 11:08:26;;;;;;;23.55;11.70;;;;;;;7.49;93.89;103671.19;5061589;28;20036;-76
2022/01/23 11:11:02;;;;;;;21.77;11.73;;;;;;;7.49;93.44;103674.75;5059462;28;20041;-76
2022/01/23 11:19:16;;;;;;;23.85;12.50;;;;;;;7.60;93.40;103666.09;5073425;28;20090;-75
2022/01/23 11:21:42;;;;;;;23.58;12.98;;;;;;;7.62;93.32;103659.97;5070655;28;20036;-77
2022/01/23 11:24:07;;;;;;;23.30;11.45;;;;;;;7.63;92.81;103650.28;5069944;28;20491;-77
2022/01/23 11:26:32;;;;;;;24.50;12.93;;;;;;;7.67;92.62;103655.63;5063795;28;20059;-78
2022/01/23 11:29:08;;;;;;;20.05;11.68;;;;;;;7.69;92.06;103653.00;5072830;28;20065;-77
2022/01/23 11:31:33;;;;;;;21.80;11.35;;;;;;;7.70;91.06;103654.78;5059160;28;20059;-77
2022/01/23 11:34:01;;;;;;;19.60;11.77;;;;;;;7.73;91.39;103644.25;5054097;28;20052;-78
2022/01/23 11:36:26;;;;;;;23.60;12.73;;;;;;;7.76;91.89;103644.28;5060056;28;20484;-78
2022/01/23 11:38:56;;;;;;;24.90;11.95;;;;;;;7.82;91.97;103649.63;5053830;28;20013;-78
2022/01/23 11:55:33;;;;;;;19.30;11.35;;;;;;;7.99;89.42;103636.66;5058202;28;20499;-76
2022/01/23 11:57:59;;;;;;;22.05;11.45;;;;;;;7.99;89.55;103636.66;5062687;28;20028;-78
2022/01/23 12:00:32;;;;;;;18.10;11.77;;;;;;;8.00;89.17;103634.91;5062399;28;20017;-78
2022/01/23 12:03:18;;;;;;;23.65;12.07;;;;;;;7.97;89.55;103629.59;5065213;28;20046;-78
2022/01/23 12:05:45;;;;;;;23.08;12.60;;;;;;;7.98;90.24;103626.97;5070427;28;20426;-79
2022/01/23 12:08:19;;;;;;;24.05;13.20;;;;;;;7.97;90.33;103625.19;5071564;28;20024;-79
2022/01/23 12:16:22;;;;;;;24.98;13.40;;;;;;;7.98;90.43;103626.97;5059929;28;20052;-77
2022/01/23 12:17:03;;;;;;;25.00;12.55;;;;;;;8.04;90.03;103626.13;5071762;28;20037;-78
2022/01/23 12:19:31;;;;;;;21.85;12.45;;;;;;;7.97;89.22;103617.28;5060635;28;20032;-77
2022/01/23 12:21:59;;;;;;;19.67;10.55;;;;;;;7.93;88.33;103617.22;5067024;28;20020;-78
2022/01/23 12:24:25;;;;;;;24.75;11.55;;;;;;;7.90;88.43;103623.34;5061594;28;20029;-78
2022/01/23 12:27:19;;;;;;;22.15;11.63;;;;;;;7.91;87.71;103619.84;5065956;28;20111;-77
2022/01/23 12:29:44;;;;;;;21.13;12.30;;;;;;;7.89;87.76;103616.31;5055227;28;20025;-78
2022/01/23 12:32:17;;;;;;;22.67;12.98;;;;;;;7.94;88.18;103616.34;5071963;28;20097;-78
2022/01/23 12:34:53;;;;;;;21.25;12.63;;;;;;;7.96;87.51;103612.84;5071354;28;20567;-79
2022/01/23 12:37:19;;;;;;;23.17;13.38;;;;;;;7.95;88.13;103616.38;5063342;28;20397;-77
2022/01/23 12:39:46;;;;;;;22.80;13.27;;;;;;;7.97;88.73;103612.00;5072037;28;20513;-77
2022/01/23 12:42:11;;;;;;;25.65;13.13;;;;;;;7.97;89.00;103611.13;5072327;28;20047;-78
2022/01/23 12:44:39;;;;;;;24.38;13.05;;;;;;;7.94;88.58;103601.44;5071616;28;20464;-78
2022/01/23 12:47:16;;;;;;;23.70;13.10;;;;;;;7.97;88.37;103606.72;5070587;28;20027;-77
2022/01/23 12:49:50;;;;;;;26.65;13.98;;;;;;;8.02;88.27;103610.28;5071936;28;20163;-78
2022/01/23 12:52:19;;;;;;;24.65;13.73;;;;;;;8.08;88.37;103600.66;5061688;28;20029;-77
2022/01/23 12:54:47;;;;;;;22.42;13.45;;;;;;;8.07;87.26;103602.44;5065648;28;20025;-78
2022/01/23 12:57:20;;;;;;;23.60;13.48;;;;;;;8.04;87.11;103603.28;5062327;28;20051;-77
2022/01/23 12:59:55;;;;;;;24.13;12.50;;;;;;;8.05;86.47;103604.16;5059234;28;20495;-76
2022/01/23 13:02:23;;;;;;;21.17;12.50;;;;;;;8.08;86.82;103598.94;5065120;28;20116;-77
2022/01/23 13:04:51;;;;;;;18.92;10.90;;;;;;;8.01;85.49;103592.69;5060563;28;20041;-76
2022/01/23 13:07:24;;;;;;;21.02;11.57;;;;;;;7.94;85.54;103601.44;5054130;28;20461;-76
2022/01/23 13:30:53;;;;;;;19.45;9.93;;;;;;;7.77;84.19;103603.84;5074789;28;20040;-78
2022/01/23 13:33:24;;;;;;;17.77;10.45;;;;;;;7.74;85.00;103597.66;5075285;28;20025;-77
2022/01/23 13:35:53;;;;;;;18.05;10.60;;;;;;;7.81;84.72;103605.69;5060447;28;20033;-77
2022/01/23 13:38:21;;;;;;;20.42;10.60;;;;;;;7.80;85.36;103587.19;5055733;28;20029;-77
2022/01/23 13:40:57;;;;;;;19.13;11.40;;;;;;;7.82;84.78;103583.69;5073861;28;20033;-77
2022/01/23 13:51:58;;;;;;;22.30;10.90;;;;;;;7.76;84.14;103594.16;5074631;28;20063;-77
2022/01/23 13:59:49;;;;;;;16.17;9.88;;;;;;;7.76;83.30;103578.34;5065086;28;20052;-77
2022/01/23 14:02:25;;;;;;;18.50;10.25;;;;;;;7.71;82.33;103570.41;5059673;28;20028;-78
2022/01/23 14:04:56;;;;;;;15.40;10.30;;;;;;;7.66;82.32;103576.47;5074167;28;20404;-77
2022/01/23 14:07:25;;;;;;;15.60;10.00;;;;;;;7.63;82.43;103572.03;5067091;28;20421;-77
2022/01/23 14:09:50;;;;;;;19.23;10.05;;;;;;;7.62;81.70;103566.75;5074285;28;20025;-77
2022/01/23 14:12:20;;;;;;;13.45;8.75;;;;;;;7.61;81.31;103573.78;5074422;28;20039;-77
2022/01/23 14:15:04;;;;;;;14.93;9.15;;;;;;;7.59;81.09;103583.44;5074296;28;20028;-77
2022/01/23 14:17:35;;;;;;;15.20;9.45;;;;;;;7.59;79.82;103577.28;5074378;28;20058;-76
2022/01/23 14:20:00;;;;;;;14.48;9.48;;;;;;;7.60;79.84;103571.16;5075162;28;20024;-77
2022/01/23 14:22:31;;;;;;;14.50;10.35;;;;;;;7.59;79.65;103572.00;5073660;28;20545;-77
2022/01/23 14:25:17;;;;;;;19.15;11.65;;;;;;;7.53;79.92;103576.34;5058150;28;20020;-76
2022/01/23 14:27:46;;;;;;;20.85;12.00;;;;;;;7.52;80.04;103573.69;5073952;28;20031;-77
2022/01/23 14:30:17;;;;;;;18.45;11.85;;;;;;;7.48;80.29;103579.78;5073679;28;20052;-77
2022/01/23 14:32:52;;;;;;;17.08;11.10;;;;;;;7.44;81.00;103575.34;5073312;28;20515;-76
2022/01/23 14:35:20;;;;;;;16.98;10.27;;;;;;;7.38;80.44;103577.03;5069986;28;20024;-77
2022/01/23 14:37:48;;;;;;;15.80;10.90;;;;;;;7.30;80.48;103575.16;5069449;28;20024;-78
2022/01/23 14:40:16;;;;;;;17.88;10.70;;;;;;;7.26;81.07;103574.22;5067868;28;20107;-77
2022/01/23 14:42:58;;;;;;;17.20;10.82;;;;;;;7.28;81.06;103580.41;5073512;28;20044;-77
2022/01/23 14:45:24;;;;;;;16.85;11.50;;;;;;;7.26;81.34;103576.88;5070394;28;20021;-77
2022/01/23 14:47:50;;;;;;;17.58;12.38;;;;;;;7.24;81.49;103575.97;5084799;28;20063;-76
2022/01/23 14:50:19;;;;;;;19.60;12.25;;;;;;;7.20;81.89;103577.69;5073918;28;20051;-77
2022/01/23 14:52:45;;;;;;;21.50;12.10;;;;;;;7.21;80.76;103570.66;5074044;28;20035;-78